sensor_id;sensor_type;location;lat;lon;timestamp;pressure;altitude;pressure_sealevel;temperature;humidity
38780;BME280;29273;49.962;9.768;2023-04-10T00:01:28;100578.69;;;9.34;46.58
38780;BME280;29273;49.962;9.768;2023-04-10T00:04:00;100581.50;;;9.33;46.40
38780;BME280;29273;49.962;9.768;2023-04-10T00:06:25;100573.91;;;9.30;46.31
38780;BME280;29273;49.962;9.768;2023-04-10T00:08:52;100569.97;;;9.25;46.30
38780;BME280;29273;49.962;9.768;2023-04-10T00:11:18;100568.03;;;9.19;46.42
38780;BME280;29273;49.962;9.768;2023-04-10T00:13:43;100572.00;;;9.15;46.58
38780;BME280;29273;49.962;9.768;2023-04-10T00:16:09;100563.44;;;9.13;46.68
38780;BME280;29273;49.962;9.768;2023-04-10T00:18:35;100562.97;;;9.10;46.86
38780;BME280;29273;49.962;9.768;2023-04-10T00:21:02;100560.31;;;9.10;46.71
38780;BME280;29273;49.962;9.768;2023-04-10T00:23:27;100561.47;;;9.07;46.83
38780;BME280;29273;49.962;9.768;2023-04-10T00:25:56;100563.31;;;9.06;46.90
38780;BME280;29273;49.962;9.768;2023-04-10T00:28:21;100556.53;;;9.04;46.83
38780;BME280;29273;49.962;9.768;2023-04-10T00:30:47;100555.91;;;9.02;46.94
38780;BME280;29273;49.962;9.768;2023-04-10T00:33:13;100551.59;;;9.01;46.99
38780;BME280;29273;49.962;9.768;2023-04-10T00:35:38;100552.78;;;8.98;47.01
38780;BME280;29273;49.962;9.768;2023-04-10T00:38:04;100541.75;;;8.95;46.94
38780;BME280;29273;49.962;9.768;2023-04-10T00:40:29;100539.25;;;8.93;47.01
38780;BME280;29273;49.962;9.768;2023-04-10T00:42:56;100535.97;;;8.91;46.95
38780;BME280;29273;49.962;9.768;2023-04-10T00:45:21;100531.69;;;8.90;46.92
38780;BME280;29273;49.962;9.768;2023-04-10T00:47:47;100530.56;;;8.84;46.94
38780;BME280;29273;49.962;9.768;2023-04-10T00:50:13;100540.28;;;8.84;47.15
38780;BME280;29273;49.962;9.768;2023-04-10T00:52:39;100530.06;;;8.81;47.25
38780;BME280;29273;49.962;9.768;2023-04-10T00:55:05;100533.88;;;8.78;47.12
38780;BME280;29273;49.962;9.768;2023-04-10T00:57:32;100532.22;;;8.77;47.07
38780;BME280;29273;49.962;9.768;2023-04-10T00:59:57;100533.59;;;8.73;47.23
38780;BME280;29273;49.962;9.768;2023-04-10T01:02:24;100537.38;;;8.70;47.31
38780;BME280;29273;49.962;9.768;2023-04-10T01:04:50;100541.19;;;8.68;47.20
38780;BME280;29273;49.962;9.768;2023-04-10T01:10:35;100542.69;;;8.62;46.39
38780;BME280;29273;49.962;9.768;2023-04-10T01:13:11;100541.88;;;8.62;46.27
38780;BME280;29273;49.962;9.768;2023-04-10T01:15:47;100553.59;;;8.59;46.44
38780;BME280;29273;49.962;9.768;2023-04-10T01:18:45;100559.22;;;8.56;46.22
38780;BME280;29273;49.962;9.768;2023-04-10T01:21:14;100560.22;;;8.47;46.92
38780;BME280;29273;49.962;9.768;2023-04-10T01:23:51;100557.25;;;8.42;47.34
38780;BME280;29273;49.962;9.768;2023-04-10T01:29:08;100564.03;;;8.36;47.32
38780;BME280;29273;49.962;9.768;2023-04-10T01:31:48;100570.47;;;8.17;46.45
38780;BME280;29273;49.962;9.768;2023-04-10T01:34:21;100566.31;;;8.31;46.74
38780;BME280;29273;49.962;9.768;2023-04-10T01:36:52;100573.75;;;8.27;47.08
38780;BME280;29273;49.962;9.768;2023-04-10T01:39:20;100577.09;;;8.21;47.58
38780;BME280;29273;49.962;9.768;2023-04-10T01:41:49;100573.78;;;8.19;47.75
38780;BME280;29273;49.962;9.768;2023-04-10T01:44:20;100572.31;;;8.17;48.04
38780;BME280;29273;49.962;9.768;2023-04-10T01:46:48;100574.47;;;8.13;48.25
38780;BME280;29273;49.962;9.768;2023-04-10T01:49:15;100572.63;;;8.13;48.24
38780;BME280;29273;49.962;9.768;2023-04-10T01:51:42;100573.44;;;8.14;48.27
38780;BME280;29273;49.962;9.768;2023-04-10T01:54:10;100570.97;;;8.12;48.61
38780;BME280;29273;49.962;9.768;2023-04-10T01:56:36;100573.63;;;8.12;48.70
38780;BME280;29273;49.962;9.768;2023-04-10T01:59:02;100571.81;;;8.13;48.78
38780;BME280;29273;49.962;9.768;2023-04-10T02:01:28;100575.28;;;8.13;48.66
38780;BME280;29273;49.962;9.768;2023-04-10T02:03:53;100564.88;;;8.12;48.82
38780;BME280;29273;49.962;9.768;2023-04-10T02:09:39;100565.38;;;8.15;48.20
38780;BME280;29273;49.962;9.768;2023-04-10T02:12:07;100568.84;;;8.16;47.89
38780;BME280;29273;49.962;9.768;2023-04-10T02:14:37;100568.16;;;8.14;48.20
38780;BME280;29273;49.962;9.768;2023-04-10T02:17:07;100558.78;;;8.11;48.18
38780;BME280;29273;49.962;9.768;2023-04-10T02:19:36;100556.31;;;8.10;48.12
38780;BME280;29273;49.962;9.768;2023-04-10T02:22:04;100550.56;;;8.06;48.04
38780;BME280;29273;49.962;9.768;2023-04-10T02:24:32;100554.50;;;8.02;48.36
38780;BME280;29273;49.962;9.768;2023-04-10T02:26:57;100554.03;;;7.99;48.50
38780;BME280;29273;49.962;9.768;2023-04-10T02:29:23;100551.88;;;7.94;48.51
38780;BME280;29273;49.962;9.768;2023-04-10T02:31:49;100548.75;;;7.90;48.65
38780;BME280;29273;49.962;9.768;2023-04-10T02:34:14;100560.31;;;7.89;48.54
38780;BME280;29273;49.962;9.768;2023-04-10T02:36:40;100566.88;;;7.85;48.53
38780;BME280;29273;49.962;9.768;2023-04-10T02:39:07;100567.22;;;7.82;48.37
38780;BME280;29273;49.962;9.768;2023-04-10T02:41:36;100562.25;;;7.79;48.54
38780;BME280;29273;49.962;9.768;2023-04-10T02:44:03;100567.03;;;7.75;48.72
38780;BME280;29273;49.962;9.768;2023-04-10T02:46:29;100562.94;;;7.73;48.65
38780;BME280;29273;49.962;9.768;2023-04-10T02:48:55;100562.09;;;7.72;48.67
38780;BME280;29273;49.962;9.768;2023-04-10T02:51:21;100562.41;;;7.69;48.50
38780;BME280;29273;49.962;9.768;2023-04-10T02:53:47;100568.84;;;7.67;48.56
38780;BME280;29273;49.962;9.768;2023-04-10T02:56:23;100565.72;;;7.63;48.66
38780;BME280;29273;49.962;9.768;2023-04-10T02:58:50;100559.97;;;7.59;48.59
38780;BME280;29273;49.962;9.768;2023-04-10T03:01:15;100569.97;;;7.56;48.68
38780;BME280;29273;49.962;9.768;2023-04-10T03:03:43;100558.78;;;7.54;48.78
38780;BME280;29273;49.962;9.768;2023-04-10T03:06:09;100557.31;;;7.51;48.87
38780;BME280;29273;49.962;9.768;2023-04-10T03:08:35;100554.84;;;7.50;48.68
38780;BME280;29273;49.962;9.768;2023-04-10T03:11:01;100559.28;;;7.49;48.84
38780;BME280;29273;49.962;9.768;2023-04-10T03:13:27;100547.25;;;7.47;48.96
38780;BME280;29273;49.962;9.768;2023-04-10T03:15:52;100550.06;;;7.45;48.99
38780;BME280;29273;49.962;9.768;2023-04-10T03:18:18;100553.50;;;7.46;48.99
38780;BME280;29273;49.962;9.768;2023-04-10T03:20:47;100559.63;;;7.46;48.85
38780;BME280;29273;49.962;9.768;2023-04-10T03:23:13;100555.47;;;7.44;49.42
38780;BME280;29273;49.962;9.768;2023-04-10T03:25:39;100552.03;;;7.43;49.18
38780;BME280;29273;49.962;9.768;2023-04-10T03:28:06;100550.53;;;7.40;48.92
38780;BME280;29273;49.962;9.768;2023-04-10T03:30:32;100548.06;;;7.39;48.90
38780;BME280;29273;49.962;9.768;2023-04-10T03:33:00;100540.31;;;7.37;48.83
38780;BME280;29273;49.962;9.768;2023-04-10T03:35:25;100534.38;;;7.35;48.92
38780;BME280;29273;49.962;9.768;2023-04-10T03:37:51;100537.19;;;7.34;48.99
38780;BME280;29273;49.962;9.768;2023-04-10T03:40:16;100533.91;;;7.32;49.17
38780;BME280;29273;49.962;9.768;2023-04-10T03:42:42;100534.06;;;7.30;49.12
38780;BME280;29273;49.962;9.768;2023-04-10T03:45:08;100537.50;;;7.31;48.93
38780;BME280;29273;49.962;9.768;2023-04-10T03:47:34;100533.41;;;7.28;48.97
38780;BME280;29273;49.962;9.768;2023-04-10T03:50:02;100543.28;;;7.26;48.96
38780;BME280;29273;49.962;9.768;2023-04-10T03:52:34;100542.75;;;7.22;48.85
38780;BME280;29273;49.962;9.768;2023-04-10T03:55:00;100538.66;;;7.20;48.71
38780;BME280;29273;49.962;9.768;2023-04-10T03:57:26;100540.78;;;7.16;48.55
38780;BME280;29273;49.962;9.768;2023-04-10T03:59:59;100536.81;;;7.12;48.75
38780;BME280;29273;49.962;9.768;2023-04-10T04:02:26;100542.41;;;7.09;48.79
38780;BME280;29273;49.962;9.768;2023-04-10T04:04:53;100545.38;;;7.06;48.60
38780;BME280;29273;49.962;9.768;2023-04-10T04:07:38;100550.13;;;7.02;48.81
38780;BME280;29273;49.962;9.768;2023-04-10T04:10:14;100552.91;;;7.01;49.26
38780;BME280;29273;49.962;9.768;2023-04-10T04:13:02;100548.66;;;7.00;49.05
38780;BME280;29273;49.962;9.768;2023-04-10T04:15:38;100546.31;;;6.97;48.96
38780;BME280;29273;49.962;9.768;2023-04-10T04:18:15;100546.31;;;6.97;48.97
38780;BME280;29273;49.962;9.768;2023-04-10T04:20:46;100548.16;;;6.96;49.35
38780;BME280;29273;49.962;9.768;2023-04-10T04:23:20;100541.22;;;6.95;49.23
38780;BME280;29273;49.962;9.768;2023-04-10T04:26:06;100542.19;;;6.94;49.41
38780;BME280;29273;49.962;9.768;2023-04-10T04:29:00;100544.97;;;6.93;49.27
38780;BME280;29273;49.962;9.768;2023-04-10T04:31:45;100544.16;;;6.92;49.79
38780;BME280;29273;49.962;9.768;2023-04-10T04:34:34;100551.25;;;6.92;49.35
38780;BME280;29273;49.962;9.768;2023-04-10T04:37:11;100549.44;;;6.92;49.40
38780;BME280;29273;49.962;9.768;2023-04-10T04:39:46;100547.81;;;6.91;49.44
38780;BME280;29273;49.962;9.768;2023-04-10T04:42:29;100549.91;;;6.88;49.26
38780;BME280;29273;49.962;9.768;2023-04-10T04:45:21;100550.25;;;6.84;49.45
38780;BME280;29273;49.962;9.768;2023-04-10T04:48:05;100547.78;;;6.83;49.63
38780;BME280;29273;49.962;9.768;2023-04-10T04:50:49;100547.94;;;6.81;49.74
38780;BME280;29273;49.962;9.768;2023-04-10T04:53:53;100543.78;;;6.79;49.87
38780;BME280;29273;49.962;9.768;2023-04-10T04:56:35;100541.31;;;6.77;49.69
38780;BME280;29273;49.962;9.768;2023-04-10T04:59:19;100544.78;;;6.78;49.86
38780;BME280;29273;49.962;9.768;2023-04-10T05:01:56;100546.41;;;6.79;49.65
38780;BME280;29273;49.962;9.768;2023-04-10T05:04:43;100548.41;;;6.77;49.70
38780;BME280;29273;49.962;9.768;2023-04-10T05:07:18;100551.03;;;6.77;49.88
38780;BME280;29273;49.962;9.768;2023-04-10T05:10:02;100548.41;;;6.77;50.04
38780;BME280;29273;49.962;9.768;2023-04-10T05:12:48;100549.22;;;6.77;50.25
38780;BME280;29273;49.962;9.768;2023-04-10T05:15:23;100542.97;;;6.78;50.33
38780;BME280;29273;49.962;9.768;2023-04-10T05:18:00;100543.63;;;6.80;50.27
38780;BME280;29273;49.962;9.768;2023-04-10T05:20:52;100543.63;;;6.80;50.22
38780;BME280;29273;49.962;9.768;2023-04-10T05:23:44;100550.41;;;6.83;50.33
38780;BME280;29273;49.962;9.768;2023-04-10T05:26:26;100544.97;;;6.84;50.56
38780;BME280;29273;49.962;9.768;2023-04-10T05:29:12;100559.63;;;6.87;50.64
38780;BME280;29273;49.962;9.768;2023-04-10T05:32:07;100557.47;;;6.91;50.74
38780;BME280;29273;49.962;9.768;2023-04-10T05:34:55;100560.78;;;6.93;50.82
38780;BME280;29273;49.962;9.768;2023-04-10T05:37:32;100564.09;;;6.95;50.81
38780;BME280;29273;49.962;9.768;2023-04-10T05:40:16;100550.78;;;6.96;50.85
38780;BME280;29273;49.962;9.768;2023-04-10T05:43:06;100554.88;;;6.99;50.96
38780;BME280;29273;49.962;9.768;2023-04-10T05:45:51;100551.13;;;7.01;51.16
38780;BME280;29273;49.962;9.768;2023-04-10T05:48:39;100549.97;;;7.04;51.20
38780;BME280;29273;49.962;9.768;2023-04-10T05:51:19;100559.22;;;7.08;51.22
38780;BME280;29273;49.962;9.768;2023-04-10T05:54:13;100552.63;;;7.12;51.21
38780;BME280;29273;49.962;9.768;2023-04-10T05:56:45;100552.31;;;7.15;51.31
38780;BME280;29273;49.962;9.768;2023-04-10T05:59:26;100552.97;;;7.17;51.24
38780;BME280;29273;49.962;9.768;2023-04-10T06:02:14;100553.44;;;7.21;51.27
38780;BME280;29273;49.962;9.768;2023-04-10T06:04:40;100553.97;;;7.25;51.50
38780;BME280;29273;49.962;9.768;2023-04-10T06:07:06;100553.63;;;7.28;51.46
38780;BME280;29273;49.962;9.768;2023-04-10T06:09:32;100555.13;;;7.30;51.58
38780;BME280;29273;49.962;9.768;2023-04-10T06:11:59;100558.25;;;7.34;51.63
38780;BME280;29273;49.962;9.768;2023-04-10T06:14:25;100553.66;;;7.36;51.52
38780;BME280;29273;49.962;9.768;2023-04-10T06:16:51;100554.34;;;7.38;51.74
38780;BME280;29273;49.962;9.768;2023-04-10T06:19:16;100556.81;;;7.39;51.79
38780;BME280;29273;49.962;9.768;2023-04-10T06:21:41;100548.72;;;7.41;51.81
38780;BME280;29273;49.962;9.768;2023-04-10T06:24:07;100549.41;;;7.43;51.95
38780;BME280;29273;49.962;9.768;2023-04-10T06:26:32;100551.03;;;7.44;52.11
38780;BME280;29273;49.962;9.768;2023-04-10T06:28:59;100543.66;;;7.48;52.19
38780;BME280;29273;49.962;9.768;2023-04-10T06:31:25;100547.75;;;7.50;52.13
38780;BME280;29273;49.962;9.768;2023-04-10T06:33:50;100539.53;;;7.53;52.34
38780;BME280;29273;49.962;9.768;2023-04-10T06:36:16;100544.31;;;7.58;52.46
38780;BME280;29273;49.962;9.768;2023-04-10T06:38:46;100548.91;;;7.64;52.32
38780;BME280;29273;49.962;9.768;2023-04-10T06:41:12;100551.22;;;7.67;52.43
38780;BME280;29273;49.962;9.768;2023-04-10T06:43:38;100551.53;;;7.72;52.63
38780;BME280;29273;49.962;9.768;2023-04-10T06:46:03;100550.91;;;7.78;52.48
38780;BME280;29273;49.962;9.768;2023-04-10T06:48:30;100555.53;;;7.85;52.35
38780;BME280;29273;49.962;9.768;2023-04-10T06:50:56;100551.53;;;7.89;52.71
38780;BME280;29273;49.962;9.768;2023-04-10T06:53:21;100544.97;;;7.93;52.48
38780;BME280;29273;49.962;9.768;2023-04-10T06:55:47;100554.19;;;7.97;52.88
38780;BME280;29273;49.962;9.768;2023-04-10T06:58:12;100545.78;;;8.02;52.80
38780;BME280;29273;49.962;9.768;2023-04-10T07:00:38;100551.53;;;8.05;52.83
38780;BME280;29273;49.962;9.768;2023-04-10T07:03:03;100550.22;;;8.09;53.27
38780;BME280;29273;49.962;9.768;2023-04-10T07:05:29;100557.78;;;8.12;53.42
38780;BME280;29273;49.962;9.768;2023-04-10T07:07:54;100552.81;;;8.18;53.73
38780;BME280;29273;49.962;9.768;2023-04-10T07:10:20;100545.91;;;8.25;53.43
38780;BME280;29273;49.962;9.768;2023-04-10T07:12:45;100543.41;;;8.31;53.60
38780;BME280;29273;49.962;9.768;2023-04-10T07:15:11;100548.03;;;8.38;53.49
38780;BME280;29273;49.962;9.768;2023-04-10T07:17:37;100543.59;;;8.46;53.56
38780;BME280;29273;49.962;9.768;2023-04-10T07:20:03;100547.00;;;8.55;53.43
38780;BME280;29273;49.962;9.768;2023-04-10T07:22:29;100545.16;;;8.64;53.70
38780;BME280;29273;49.962;9.768;2023-04-10T07:24:55;100538.22;;;8.71;53.61
38780;BME280;29273;49.962;9.768;2023-04-10T07:27:20;100535.72;;;8.78;53.30
38780;BME280;29273;49.962;9.768;2023-04-10T07:29:47;100534.03;;;8.85;53.59
38780;BME280;29273;49.962;9.768;2023-04-10T07:32:12;100529.50;;;8.94;53.57
38780;BME280;29273;49.962;9.768;2023-04-10T07:34:38;100534.59;;;9.03;53.67
38780;BME280;29273;49.962;9.768;2023-04-10T07:37:03;100530.91;;;9.13;54.10
38780;BME280;29273;49.962;9.768;2023-04-10T07:39:29;100525.56;;;9.21;54.11
38780;BME280;29273;49.962;9.768;2023-04-10T07:41:54;100527.16;;;9.30;53.99
38780;BME280;29273;49.962;9.768;2023-04-10T07:44:20;100527.91;;;9.39;54.01
38780;BME280;29273;49.962;9.768;2023-04-10T07:46:46;100524.22;;;9.48;54.00
38780;BME280;29273;49.962;9.768;2023-04-10T07:49:11;100523.16;;;9.57;53.75
38780;BME280;29273;49.962;9.768;2023-04-10T07:51:37;100518.63;;;9.66;53.41
38780;BME280;29273;49.962;9.768;2023-04-10T07:54:03;100520.38;;;9.74;53.30
38780;BME280;29273;49.962;9.768;2023-04-10T07:56:29;100518.69;;;9.81;53.06
38780;BME280;29273;49.962;9.768;2023-04-10T07:58:58;100519.06;;;9.93;52.93
38780;BME280;29273;49.962;9.768;2023-04-10T08:01:25;100506.47;;;9.95;52.97
38780;BME280;29273;49.962;9.768;2023-04-10T08:03:50;100519.00;;;10.01;52.64
38780;BME280;29273;49.962;9.768;2023-04-10T08:06:16;100505.00;;;10.07;52.48
38780;BME280;29273;49.962;9.768;2023-04-10T08:08:42;100510.59;;;10.12;52.48
38780;BME280;29273;49.962;9.768;2023-04-10T08:11:27;100503.03;;;10.24;52.22
38780;BME280;29273;49.962;9.768;2023-04-10T08:13:54;100503.69;;;10.26;52.55
38780;BME280;29273;49.962;9.768;2023-04-10T08:16:24;100502.22;;;10.39;52.40
38780;BME280;29273;49.962;9.768;2023-04-10T08:18:51;100500.22;;;10.41;53.06
38780;BME280;29273;49.962;9.768;2023-04-10T08:21:17;100500.13;;;10.49;52.97
38780;BME280;29273;49.962;9.768;2023-04-10T08:23:43;100494.09;;;10.55;52.71
38780;BME280;29273;49.962;9.768;2023-04-10T08:26:10;100492.34;;;10.62;52.51
38780;BME280;29273;49.962;9.768;2023-04-10T08:28:36;100483.66;;;10.68;52.54
38780;BME280;29273;49.962;9.768;2023-04-10T08:31:02;100474.97;;;10.74;52.44
38780;BME280;29273;49.962;9.768;2023-04-10T08:33:27;100472.41;;;10.81;52.32
38780;BME280;29273;49.962;9.768;2023-04-10T08:35:53;100469.00;;;10.87;52.23
38780;BME280;29273;49.962;9.768;2023-04-10T08:38:18;100473.38;;;10.95;52.11
38780;BME280;29273;49.962;9.768;2023-04-10T08:40:45;100467.31;;;11.01;51.73
38780;BME280;29273;49.962;9.768;2023-04-10T08:43:12;100461.91;;;11.09;51.66
38780;BME280;29273;49.962;9.768;2023-04-10T08:45:39;100461.59;;;11.19;51.71
38780;BME280;29273;49.962;9.768;2023-04-10T08:48:06;100459.81;;;11.26;51.82
38780;BME280;29273;49.962;9.768;2023-04-10T08:50:33;100450.25;;;11.32;51.51
38780;BME280;29273;49.962;9.768;2023-04-10T08:53:06;100455.69;;;11.45;51.41
38780;BME280;29273;49.962;9.768;2023-04-10T08:55:33;100448.19;;;11.49;51.82
38780;BME280;29273;49.962;9.768;2023-04-10T08:58:00;100443.56;;;11.58;51.15
38780;BME280;29273;49.962;9.768;2023-04-10T09:00:27;100445.22;;;11.65;51.10
38780;BME280;29273;49.962;9.768;2023-04-10T09:02:53;100441.63;;;11.73;51.19
38780;BME280;29273;49.962;9.768;2023-04-10T09:05:26;100436.59;;;11.85;50.86
38780;BME280;29273;49.962;9.768;2023-04-10T09:07:52;100436.41;;;11.87;50.70
38780;BME280;29273;49.962;9.768;2023-04-10T09:10:18;100426.47;;;11.95;50.36
38780;BME280;29273;49.962;9.768;2023-04-10T09:12:47;100419.81;;;12.06;50.18
38780;BME280;29273;49.962;9.768;2023-04-10T09:15:13;100426.53;;;12.09;49.81
38780;BME280;29273;49.962;9.768;2023-04-10T09:20:25;100419.06;;;12.26;49.85
38780;BME280;29273;49.962;9.768;2023-04-10T09:22:51;100420.13;;;12.31;49.74
38780;BME280;29273;49.962;9.768;2023-04-10T09:25:34;100413.84;;;12.39;49.26
38780;BME280;29273;49.962;9.768;2023-04-10T09:28:05;100415.28;;;12.48;49.30
38780;BME280;29273;49.962;9.768;2023-04-10T09:30:39;100411.00;;;12.54;49.12
38780;BME280;29273;49.962;9.768;2023-04-10T09:33:23;100410.22;;;12.60;49.56
38780;BME280;29273;49.962;9.768;2023-04-10T09:35:52;100404.31;;;12.65;48.74
38780;BME280;29273;49.962;9.768;2023-04-10T09:38:20;100389.19;;;12.72;48.66
38780;BME280;29273;49.962;9.768;2023-04-10T09:40:46;100384.06;;;12.77;48.53
38780;BME280;29273;49.962;9.768;2023-04-10T09:43:27;100394.13;;;12.88;49.04
38780;BME280;29273;49.962;9.768;2023-04-10T09:45:54;100382.28;;;12.91;47.90
38780;BME280;29273;49.962;9.768;2023-04-10T09:48:21;100393.94;;;12.96;47.98
38780;BME280;29273;49.962;9.768;2023-04-10T09:50:47;100377.97;;;13.03;47.50
38780;BME280;29273;49.962;9.768;2023-04-10T09:53:14;100378.38;;;13.13;47.29
38780;BME280;29273;49.962;9.768;2023-04-10T09:55:41;100371.44;;;13.19;47.89
38780;BME280;29273;49.962;9.768;2023-04-10T09:58:08;100358.97;;;13.26;47.68
38780;BME280;29273;49.962;9.768;2023-04-10T10:00:40;100351.59;;;13.35;47.95
38780;BME280;29273;49.962;9.768;2023-04-10T10:03:09;100344.88;;;13.39;47.77
38780;BME280;29273;49.962;9.768;2023-04-10T10:05:43;100338.88;;;13.50;47.68
38780;BME280;29273;49.962;9.768;2023-04-10T10:08:10;100334.41;;;13.51;46.49
38780;BME280;29273;49.962;9.768;2023-04-10T10:10:39;100327.00;;;13.60;47.17
38780;BME280;29273;49.962;9.768;2023-04-10T10:13:07;100317.38;;;13.65;46.88
38780;BME280;29273;49.962;9.768;2023-04-10T10:15:48;100318.19;;;13.73;46.49
38780;BME280;29273;49.962;9.768;2023-04-10T10:18:31;100302.56;;;13.83;46.79
38780;BME280;29273;49.962;9.768;2023-04-10T10:21:01;100311.97;;;13.85;45.60
38780;BME280;29273;49.962;9.768;2023-04-10T10:23:27;100299.47;;;13.93;45.61
38780;BME280;29273;49.962;9.768;2023-04-10T10:25:53;100302.91;;;14.00;44.20
38780;BME280;29273;49.962;9.768;2023-04-10T10:28:20;100293.88;;;14.07;44.09
38780;BME280;29273;49.962;9.768;2023-04-10T10:30:47;100289.91;;;14.17;43.56
38780;BME280;29273;49.962;9.768;2023-04-10T10:33:16;100289.88;;;14.23;43.65
38780;BME280;29273;49.962;9.768;2023-04-10T10:35:41;100285.78;;;14.28;43.04
38780;BME280;29273;49.962;9.768;2023-04-10T10:38:08;100282.66;;;14.37;43.37
38780;BME280;29273;49.962;9.768;2023-04-10T10:40:41;100285.44;;;14.49;44.68
38780;BME280;29273;49.962;9.768;2023-04-10T10:45:53;100269.59;;;14.61;44.16
38780;BME280;29273;49.962;9.768;2023-04-10T10:48:20;100266.94;;;14.61;42.85
38780;BME280;29273;49.962;9.768;2023-04-10T10:53:35;100252.22;;;14.77;44.29
38780;BME280;29273;49.962;9.768;2023-04-10T10:58:49;100257.66;;;14.89;42.76
38780;BME280;29273;49.962;9.768;2023-04-10T11:01:15;100248.56;;;14.96;42.61
38780;BME280;29273;49.962;9.768;2023-04-10T11:03:41;100248.94;;;15.00;41.75
38780;BME280;29273;49.962;9.768;2023-04-10T11:06:12;100242.72;;;15.06;42.08
38780;BME280;29273;49.962;9.768;2023-04-10T11:08:42;100241.63;;;15.14;42.70
38780;BME280;29273;49.962;9.768;2023-04-10T11:11:10;100231.53;;;14.97;44.03
38780;BME280;29273;49.962;9.768;2023-04-10T11:14:23;100225.34;;;15.22;42.77
38780;BME280;29273;49.962;9.768;2023-04-10T11:19:10;100219.47;;;15.32;41.13
38780;BME280;29273;49.962;9.768;2023-04-10T11:24:26;100214.66;;;15.41;42.20
38780;BME280;29273;49.962;9.768;2023-04-10T11:26:52;100210.06;;;15.48;42.33
38780;BME280;29273;49.962;9.768;2023-04-10T11:32:00;100209.66;;;15.63;41.77
38780;BME280;29273;49.962;9.768;2023-04-10T11:34:26;100193.66;;;15.63;40.23
38780;BME280;29273;49.962;9.768;2023-04-10T11:36:52;100190.09;;;15.69;39.79
38780;BME280;29273;49.962;9.768;2023-04-10T11:39:18;100194.50;;;15.75;40.44
38780;BME280;29273;49.962;9.768;2023-04-10T11:41:49;100199.69;;;15.88;42.57
38780;BME280;29273;49.962;9.768;2023-04-10T11:44:32;100197.16;;;15.94;42.80
38780;BME280;29273;49.962;9.768;2023-04-10T11:47:03;100183.22;;;15.91;39.88
38780;BME280;29273;49.962;9.768;2023-04-10T11:49:30;100180.00;;;16.01;40.00
38780;BME280;29273;49.962;9.768;2023-04-10T11:51:57;100170.13;;;16.02;38.83
38780;BME280;29273;49.962;9.768;2023-04-10T11:54:23;100176.78;;;16.11;39.51
38780;BME280;29273;49.962;9.768;2023-04-10T11:56:58;100171.91;;;16.20;39.79
38780;BME280;29273;49.962;9.768;2023-04-10T11:59:24;100157.75;;;16.19;38.09
38780;BME280;29273;49.962;9.768;2023-04-10T12:01:50;100154.50;;;16.29;38.58
38780;BME280;29273;49.962;9.768;2023-04-10T12:04:22;100154.38;;;16.36;37.92
38780;BME280;29273;49.962;9.768;2023-04-10T12:06:52;100150.09;;;16.46;39.40
38780;BME280;29273;49.962;9.768;2023-04-10T12:09:19;100152.88;;;16.52;38.58
38780;BME280;29273;49.962;9.768;2023-04-10T12:11:53;100142.91;;;16.59;38.39
38780;BME280;29273;49.962;9.768;2023-04-10T12:14:20;100135.69;;;16.59;38.24
38780;BME280;29273;49.962;9.768;2023-04-10T12:16:47;100126.72;;;16.65;37.26
38780;BME280;29273;49.962;9.768;2023-04-10T12:19:13;100123.09;;;16.72;37.30
38780;BME280;29273;49.962;9.768;2023-04-10T12:21:40;100118.69;;;16.77;37.17
38780;BME280;29273;49.962;9.768;2023-04-10T12:24:07;100110.91;;;16.88;38.37
38780;BME280;29273;49.962;9.768;2023-04-10T12:26:32;100098.09;;;16.90;36.59
38780;BME280;29273;49.962;9.768;2023-04-10T12:28:58;100094.50;;;16.96;36.95
38780;BME280;29273;49.962;9.768;2023-04-10T12:31:27;100084.00;;;17.06;37.19
38780;BME280;29273;49.962;9.768;2023-04-10T12:33:53;100080.84;;;17.09;36.32
38780;BME280;29273;49.962;9.768;2023-04-10T12:36:29;100079.53;;;17.24;37.62
38780;BME280;29273;49.962;9.768;2023-04-10T12:38:56;100081.69;;;17.27;36.75
38780;BME280;29273;49.962;9.768;2023-04-10T12:41:23;100077.28;;;17.32;36.47
38780;BME280;29273;49.962;9.768;2023-04-10T12:44:04;100080.03;;;17.37;36.76
38780;BME280;29273;49.962;9.768;2023-04-10T12:46:30;100077.44;;;17.43;36.02
38780;BME280;29273;49.962;9.768;2023-04-10T12:49:08;100073.06;;;17.53;37.55
38780;BME280;29273;49.962;9.768;2023-04-10T12:51:49;100069.69;;;17.58;37.26
38780;BME280;29273;49.962;9.768;2023-04-10T12:54:32;100074.22;;;17.57;36.01
38780;BME280;29273;49.962;9.768;2023-04-10T12:56:58;100061.16;;;17.61;35.57
38780;BME280;29273;49.962;9.768;2023-04-10T12:59:24;100057.06;;;17.70;35.95
38780;BME280;29273;49.962;9.768;2023-04-10T13:01:51;100052.00;;;17.74;36.49
38780;BME280;29273;49.962;9.768;2023-04-10T13:04:17;100042.41;;;17.78;35.41
38780;BME280;29273;49.962;9.768;2023-04-10T13:06:44;100045.53;;;17.87;35.33
38780;BME280;29273;49.962;9.768;2023-04-10T13:09:11;100034.16;;;17.97;36.50
38780;BME280;29273;49.962;9.768;2023-04-10T13:11:37;100029.72;;;18.02;35.16
38780;BME280;29273;49.962;9.768;2023-04-10T13:14:02;100030.59;;;18.08;35.28
38780;BME280;29273;49.962;9.768;2023-04-10T13:16:27;100028.53;;;18.15;34.88
38780;BME280;29273;49.962;9.768;2023-04-10T13:18:53;100016.28;;;18.19;34.03
38780;BME280;29273;49.962;9.768;2023-04-10T13:21:18;100022.25;;;18.26;33.92
38780;BME280;29273;49.962;9.768;2023-04-10T13:23:47;100019.66;;;18.31;33.09
38780;BME280;29273;49.962;9.768;2023-04-10T13:26:13;100013.56;;;18.36;33.28
38780;BME280;29273;49.962;9.768;2023-04-10T13:28:38;100008.00;;;18.43;33.88
38780;BME280;29273;49.962;9.768;2023-04-10T13:31:04;100005.63;;;18.46;32.97
38780;BME280;29273;49.962;9.768;2023-04-10T13:33:30;100005.16;;;18.49;32.31
38780;BME280;29273;49.962;9.768;2023-04-10T13:35:55;99995.31;;;18.55;32.65
38780;BME280;29273;49.962;9.768;2023-04-10T13:38:21;99985.69;;;18.59;32.89